sensor_id;sensor_type;location;lat;lon;timestamp;P1;durP1;ratioP1;P2;durP2;ratioP2
4885;SDS011;2457;51.788;6.136;2022-08-21T00:02:01;6.20;;;2.30;;
4885;SDS011;2457;51.788;6.136;2022-08-21T00:04:30;5.00;;;2.00;;
4885;SDS011;2457;51.788;6.136;2022-08-21T00:06:57;9.20;;;2.50;;
4885;SDS011;2457;51.788;6.136;2022-08-21T00:09:24;6.77;;;2.20;;
4885;SDS011;2457;51.788;6.136;2022-08-21T00:11:52;6.37;;;2.60;;
4885;SDS011;2457;51.788;6.136;2022-08-21T00:14:19;7.47;;;2.20;;
4885;SDS011;2457;51.788;6.136;2022-08-21T00:16:46;5.83;;;1.90;;
4885;SDS011;2457;51.788;6.136;2022-08-21T00:19:14;5.50;;;2.17;;
4885;SDS011;2457;51.788;6.136;2022-08-21T00:21:41;5.30;;;2.27;;
4885;SDS011;2457;51.788;6.136;2022-08-21T00:24:09;7.17;;;2.23;;
4885;SDS011;2457;51.788;6.136;2022-08-21T00:26:36;6.50;;;2.03;;
4885;SDS011;2457;51.788;6.136;2022-08-21T00:29:03;8.33;;;2.73;;
4885;SDS011;2457;51.788;6.136;2022-08-21T00:31:31;6.10;;;1.90;;
4885;SDS011;2457;51.788;6.136;2022-08-21T00:33:58;5.27;;;2.40;;
4885;SDS011;2457;51.788;6.136;2022-08-21T00:36:25;9.20;;;2.90;;
4885;SDS011;2457;51.788;6.136;2022-08-21T00:38:52;5.77;;;2.47;;
4885;SDS011;2457;51.788;6.136;2022-08-21T00:41:20;7.77;;;2.10;;
4885;SDS011;2457;51.788;6.136;2022-08-21T00:43:49;7.17;;;2.33;;
4885;SDS011;2457;51.788;6.136;2022-08-21T00:46:17;6.27;;;2.00;;
4885;SDS011;2457;51.788;6.136;2022-08-21T00:48:44;4.80;;;2.27;;
4885;SDS011;2457;51.788;6.136;2022-08-21T00:51:21;5.20;;;2.40;;
4885;SDS011;2457;51.788;6.136;2022-08-21T00:53:45;7.60;;;2.50;;
4885;SDS011;2457;51.788;6.136;2022-08-21T00:56:13;4.97;;;2.23;;
4885;SDS011;2457;51.788;6.136;2022-08-21T00:58:40;5.37;;;2.10;;
4885;SDS011;2457;51.788;6.136;2022-08-21T01:01:09;8.10;;;2.37;;
4885;SDS011;2457;51.788;6.136;2022-08-21T01:03:36;6.77;;;2.50;;
4885;SDS011;2457;51.788;6.136;2022-08-21T01:06:04;6.83;;;3.50;;
4885;SDS011;2457;51.788;6.136;2022-08-21T01:08:32;5.63;;;1.90;;
4885;SDS011;2457;51.788;6.136;2022-08-21T01:10:59;5.97;;;2.20;;
4885;SDS011;2457;51.788;6.136;2022-08-21T01:13:29;5.70;;;2.13;;
4885;SDS011;2457;51.788;6.136;2022-08-21T01:15:58;8.40;;;2.50;;
4885;SDS011;2457;51.788;6.136;2022-08-21T01:18:26;6.97;;;2.40;;
4885;SDS011;2457;51.788;6.136;2022-08-21T01:21:04;4.50;;;2.23;;
4885;SDS011;2457;51.788;6.136;2022-08-21T01:23:32;6.70;;;2.27;;
4885;SDS011;2457;51.788;6.136;2022-08-21T01:26:00;5.50;;;2.53;;
4885;SDS011;2457;51.788;6.136;2022-08-21T01:28:27;4.70;;;2.17;;
4885;SDS011;2457;51.788;6.136;2022-08-21T01:30:56;7.50;;;2.40;;
4885;SDS011;2457;51.788;6.136;2022-08-21T01:33:24;4.00;;;2.17;;
4885;SDS011;2457;51.788;6.136;2022-08-21T01:35:52;6.93;;;2.20;;
4885;SDS011;2457;51.788;6.136;2022-08-21T01:38:19;10.13;;;2.77;;
4885;SDS011;2457;51.788;6.136;2022-08-21T01:40:47;6.93;;;2.37;;
4885;SDS011;2457;51.788;6.136;2022-08-21T01:43:14;5.27;;;2.50;;
4885;SDS011;2457;51.788;6.136;2022-08-21T01:45:41;10.63;;;2.93;;
4885;SDS011;2457;51.788;6.136;2022-08-21T01:48:08;6.57;;;2.90;;
4885;SDS011;2457;51.788;6.136;2022-08-21T01:50:36;8.73;;;2.60;;
4885;SDS011;2457;51.788;6.136;2022-08-21T01:53:04;12.90;;;3.30;;
4885;SDS011;2457;51.788;6.136;2022-08-21T01:55:32;8.50;;;2.60;;
4885;SDS011;2457;51.788;6.136;2022-08-21T01:57:59;6.50;;;2.23;;
4885;SDS011;2457;51.788;6.136;2022-08-21T02:00:27;5.90;;;2.67;;
4885;SDS011;2457;51.788;6.136;2022-08-21T02:02:54;7.33;;;2.73;;
4885;SDS011;2457;51.788;6.136;2022-08-21T02:05:22;6.77;;;2.27;;
4885;SDS011;2457;51.788;6.136;2022-08-21T02:07:50;5.63;;;2.10;;
4885;SDS011;2457;51.788;6.136;2022-08-21T02:10:19;6.40;;;2.80;;
4885;SDS011;2457;51.788;6.136;2022-08-21T02:12:46;6.07;;;2.23;;
4885;SDS011;2457;51.788;6.136;2022-08-21T02:15:14;5.20;;;2.50;;
4885;SDS011;2457;51.788;6.136;2022-08-21T02:17:43;7.77;;;2.60;;
4885;SDS011;2457;51.788;6.136;2022-08-21T02:20:11;4.80;;;1.80;;
4885;SDS011;2457;51.788;6.136;2022-08-21T02:22:39;7.27;;;2.10;;
4885;SDS011;2457;51.788;6.136;2022-08-21T02:25:06;8.40;;;1.77;;
4885;SDS011;2457;51.788;6.136;2022-08-21T02:27:37;3.90;;;1.87;;
4885;SDS011;2457;51.788;6.136;2022-08-21T02:30:05;5.10;;;1.80;;
4885;SDS011;2457;51.788;6.136;2022-08-21T02:32:32;5.90;;;2.00;;
4885;SDS011;2457;51.788;6.136;2022-08-21T02:35:00;6.60;;;1.90;;
4885;SDS011;2457;51.788;6.136;2022-08-21T02:37:27;6.23;;;2.03;;
4885;SDS011;2457;51.788;6.136;2022-08-21T02:39:54;7.63;;;1.87;;
4885;SDS011;2457;51.788;6.136;2022-08-21T02:42:21;3.90;;;1.60;;
4885;SDS011;2457;51.788;6.136;2022-08-21T02:44:49;4.40;;;1.70;;
4885;SDS011;2457;51.788;6.136;2022-08-21T02:47:16;4.63;;;1.70;;
4885;SDS011;2457;51.788;6.136;2022-08-21T02:49:43;4.67;;;1.70;;
4885;SDS011;2457;51.788;6.136;2022-08-21T02:52:10;4.40;;;1.67;;
4885;SDS011;2457;51.788;6.136;2022-08-21T02:54:38;3.87;;;1.47;;
4885;SDS011;2457;51.788;6.136;2022-08-21T02:57:05;5.40;;;2.10;;
4885;SDS011;2457;51.788;6.136;2022-08-21T02:59:32;11.40;;;2.50;;
4885;SDS011;2457;51.788;6.136;2022-08-21T03:01:59;4.17;;;1.77;;
4885;SDS011;2457;51.788;6.136;2022-08-21T03:04:27;5.00;;;2.37;;
4885;SDS011;2457;51.788;6.136;2022-08-21T03:06:54;4.20;;;1.73;;
4885;SDS011;2457;51.788;6.136;2022-08-21T03:09:21;4.13;;;1.80;;
4885;SDS011;2457;51.788;6.136;2022-08-21T03:11:49;6.23;;;2.33;;
4885;SDS011;2457;51.788;6.136;2022-08-21T03:14:17;8.53;;;2.13;;
4885;SDS011;2457;51.788;6.136;2022-08-21T03:16:45;5.00;;;1.77;;
4885;SDS011;2457;51.788;6.136;2022-08-21T03:19:12;5.60;;;2.10;;
4885;SDS011;2457;51.788;6.136;2022-08-21T03:21:39;5.10;;;2.10;;
4885;SDS011;2457;51.788;6.136;2022-08-21T03:24:07;5.27;;;2.10;;
4885;SDS011;2457;51.788;6.136;2022-08-21T03:26:35;5.47;;;2.23;;
4885;SDS011;2457;51.788;6.136;2022-08-21T03:29:02;5.17;;;1.83;;
4885;SDS011;2457;51.788;6.136;2022-08-21T03:31:31;5.53;;;2.40;;
4885;SDS011;2457;51.788;6.136;2022-08-21T03:33:58;5.67;;;2.43;;
4885;SDS011;2457;51.788;6.136;2022-08-21T03:36:25;6.80;;;2.57;;
4885;SDS011;2457;51.788;6.136;2022-08-21T03:38:52;10.97;;;3.20;;
4885;SDS011;2457;51.788;6.136;2022-08-21T03:41:20;9.10;;;2.90;;
4885;SDS011;2457;51.788;6.136;2022-08-21T03:43:47;10.03;;;3.30;;
4885;SDS011;2457;51.788;6.136;2022-08-21T03:46:14;6.70;;;2.53;;
4885;SDS011;2457;51.788;6.136;2022-08-21T03:48:42;7.30;;;3.83;;
4885;SDS011;2457;51.788;6.136;2022-08-21T03:51:09;10.70;;;3.47;;
4885;SDS011;2457;51.788;6.136;2022-08-21T03:53:36;8.33;;;3.80;;
4885;SDS011;2457;51.788;6.136;2022-08-21T03:56:04;7.00;;;3.50;;
4885;SDS011;2457;51.788;6.136;2022-08-21T03:58:31;12.77;;;4.30;;
4885;SDS011;2457;51.788;6.136;2022-08-21T04:00:59;6.77;;;3.77;;
4885;SDS011;2457;51.788;6.136;2022-08-21T04:03:27;10.97;;;3.50;;
4885;SDS011;2457;51.788;6.136;2022-08-21T04:05:54;8.13;;;3.67;;
4885;SDS011;2457;51.788;6.136;2022-08-21T04:08:22;7.23;;;4.10;;
4885;SDS011;2457;51.788;6.136;2022-08-21T04:10:51;9.13;;;3.90;;
4885;SDS011;2457;51.788;6.136;2022-08-21T04:13:18;7.63;;;3.93;;
4885;SDS011;2457;51.788;6.136;2022-08-21T04:15:46;9.93;;;3.80;;
4885;SDS011;2457;51.788;6.136;2022-08-21T04:18:14;6.90;;;3.37;;
4885;SDS011;2457;51.788;6.136;2022-08-21T04:20:41;7.03;;;3.70;;
4885;SDS011;2457;51.788;6.136;2022-08-21T04:23:09;7.37;;;3.83;;
4885;SDS011;2457;51.788;6.136;2022-08-21T04:25:36;8.83;;;3.97;;
4885;SDS011;2457;51.788;6.136;2022-08-21T04:28:03;8.50;;;4.70;;
4885;SDS011;2457;51.788;6.136;2022-08-21T04:30:30;8.33;;;3.90;;
4885;SDS011;2457;51.788;6.136;2022-08-21T04:32:58;9.87;;;3.73;;
4885;SDS011;2457;51.788;6.136;2022-08-21T04:35:26;9.10;;;4.30;;
4885;SDS011;2457;51.788;6.136;2022-08-21T04:37:54;9.13;;;4.53;;
4885;SDS011;2457;51.788;6.136;2022-08-21T04:40:21;10.63;;;4.20;;
4885;SDS011;2457;51.788;6.136;2022-08-21T04:42:51;9.40;;;4.60;;
4885;SDS011;2457;51.788;6.136;2022-08-21T04:45:20;7.90;;;4.63;;
4885;SDS011;2457;51.788;6.136;2022-08-21T04:47:48;8.40;;;4.20;;
4885;SDS011;2457;51.788;6.136;2022-08-21T04:50:16;7.90;;;5.10;;
4885;SDS011;2457;51.788;6.136;2022-08-21T04:52:44;7.70;;;4.63;;
4885;SDS011;2457;51.788;6.136;2022-08-21T04:55:11;11.93;;;4.97;;
4885;SDS011;2457;51.788;6.136;2022-08-21T04:57:39;9.87;;;5.10;;
4885;SDS011;2457;51.788;6.136;2022-08-21T05:00:08;8.47;;;4.30;;
4885;SDS011;2457;51.788;6.136;2022-08-21T05:02:38;9.73;;;4.97;;
4885;SDS011;2457;51.788;6.136;2022-08-21T05:05:06;10.43;;;5.60;;
4885;SDS011;2457;51.788;6.136;2022-08-21T05:07:33;7.37;;;4.90;;
4885;SDS011;2457;51.788;6.136;2022-08-21T05:10:01;12.13;;;4.90;;
4885;SDS011;2457;51.788;6.136;2022-08-21T05:12:28;10.33;;;4.83;;
4885;SDS011;2457;51.788;6.136;2022-08-21T05:14:57;12.37;;;4.67;;
4885;SDS011;2457;51.788;6.136;2022-08-21T05:17:25;6.80;;;4.30;;
4885;SDS011;2457;51.788;6.136;2022-08-21T05:19:52;8.20;;;5.00;;
4885;SDS011;2457;51.788;6.136;2022-08-21T05:22:20;11.67;;;5.03;;
4885;SDS011;2457;51.788;6.136;2022-08-21T05:24:47;10.43;;;5.00;;
4885;SDS011;2457;51.788;6.136;2022-08-21T05:27:15;10.83;;;5.23;;
4885;SDS011;2457;51.788;6.136;2022-08-21T05:29:42;10.67;;;5.40;;
4885;SDS011;2457;51.788;6.136;2022-08-21T05:32:10;7.83;;;4.80;;
4885;SDS011;2457;51.788;6.136;2022-08-21T05:34:38;7.57;;;4.37;;
4885;SDS011;2457;51.788;6.136;2022-08-21T05:37:05;9.53;;;5.07;;
4885;SDS011;2457;51.788;6.136;2022-08-21T05:39:32;9.43;;;4.87;;
4885;SDS011;2457;51.788;6.136;2022-08-21T05:42:00;7.20;;;4.77;;
4885;SDS011;2457;51.788;6.136;2022-08-21T05:44:27;9.70;;;5.03;;
4885;SDS011;2457;51.788;6.136;2022-08-21T05:46:55;13.13;;;5.53;;
4885;SDS011;2457;51.788;6.136;2022-08-21T05:49:22;10.40;;;5.23;;
4885;SDS011;2457;51.788;6.136;2022-08-21T05:51:49;13.73;;;5.00;;
4885;SDS011;2457;51.788;6.136;2022-08-21T05:54:16;10.40;;;5.27;;
4885;SDS011;2457;51.788;6.136;2022-08-21T05:56:44;9.23;;;5.50;;
4885;SDS011;2457;51.788;6.136;2022-08-21T05:59:11;10.73;;;5.00;;
4885;SDS011;2457;51.788;6.136;2022-08-21T06:01:39;12.43;;;5.67;;
4885;SDS011;2457;51.788;6.136;2022-08-21T06:04:06;9.27;;;5.30;;
4885;SDS011;2457;51.788;6.136;2022-08-21T06:06:34;14.13;;;6.27;;
4885;SDS011;2457;51.788;6.136;2022-08-21T06:09:01;12.00;;;5.60;;
4885;SDS011;2457;51.788;6.136;2022-08-21T06:11:29;14.80;;;5.93;;
4885;SDS011;2457;51.788;6.136;2022-08-21T06:13:56;9.47;;;5.60;;
4885;SDS011;2457;51.788;6.136;2022-08-21T06:16:24;14.20;;;6.17;;
4885;SDS011;2457;51.788;6.136;2022-08-21T06:18:51;7.70;;;4.80;;
4885;SDS011;2457;51.788;6.136;2022-08-21T06:21:18;9.83;;;5.07;;
4885;SDS011;2457;51.788;6.136;2022-08-21T06:23:46;7.10;;;4.13;;
4885;SDS011;2457;51.788;6.136;2022-08-21T06:26:13;8.20;;;4.70;;
4885;SDS011;2457;51.788;6.136;2022-08-21T06:28:41;7.27;;;3.70;;
4885;SDS011;2457;51.788;6.136;2022-08-21T06:31:12;8.57;;;4.03;;
4885;SDS011;2457;51.788;6.136;2022-08-21T06:33:40;11.63;;;4.20;;
4885;SDS011;2457;51.788;6.136;2022-08-21T06:36:07;6.20;;;3.43;;
4885;SDS011;2457;51.788;6.136;2022-08-21T06:38:35;9.40;;;4.33;;
4885;SDS011;2457;51.788;6.136;2022-08-21T06:41:03;7.77;;;4.07;;
4885;SDS011;2457;51.788;6.136;2022-08-21T06:43:30;6.70;;;4.27;;
4885;SDS011;2457;51.788;6.136;2022-08-21T06:45:58;8.80;;;4.60;;
4885;SDS011;2457;51.788;6.136;2022-08-21T06:48:25;18.83;;;4.40;;
4885;SDS011;2457;51.788;6.136;2022-08-21T06:50:52;12.40;;;4.30;;
4885;SDS011;2457;51.788;6.136;2022-08-21T06:53:20;8.60;;;3.93;;
4885;SDS011;2457;51.788;6.136;2022-08-21T06:55:48;13.30;;;4.20;;
4885;SDS011;2457;51.788;6.136;2022-08-21T06:58:15;11.50;;;4.43;;
4885;SDS011;2457;51.788;6.136;2022-08-21T07:00:44;11.17;;;4.40;;
4885;SDS011;2457;51.788;6.136;2022-08-21T07:03:23;10.87;;;4.20;;
4885;SDS011;2457;51.788;6.136;2022-08-21T07:05:50;7.73;;;4.30;;
4885;SDS011;2457;51.788;6.136;2022-08-21T07:08:18;13.30;;;5.00;;
4885;SDS011;2457;51.788;6.136;2022-08-21T07:10:45;8.43;;;4.63;;
4885;SDS011;2457;51.788;6.136;2022-08-21T07:13:13;13.40;;;5.43;;
4885;SDS011;2457;51.788;6.136;2022-08-21T07:15:41;11.87;;;4.97;;
4885;SDS011;2457;51.788;6.136;2022-08-21T07:18:08;11.10;;;4.83;;
4885;SDS011;2457;51.788;6.136;2022-08-21T07:20:35;8.97;;;4.20;;
4885;SDS011;2457;51.788;6.136;2022-08-21T07:23:04;11.63;;;4.70;;
4885;SDS011;2457;51.788;6.136;2022-08-21T07:25:31;13.63;;;5.00;;
4885;SDS011;2457;51.788;6.136;2022-08-21T07:27:59;9.40;;;4.50;;
4885;SDS011;2457;51.788;6.136;2022-08-21T07:30:26;11.10;;;4.30;;
4885;SDS011;2457;51.788;6.136;2022-08-21T07:32:53;9.87;;;4.10;;
4885;SDS011;2457;51.788;6.136;2022-08-21T07:35:21;14.27;;;4.70;;
4885;SDS011;2457;51.788;6.136;2022-08-21T07:37:48;8.40;;;3.97;;
4885;SDS011;2457;51.788;6.136;2022-08-21T07:40:16;11.13;;;4.53;;
4885;SDS011;2457;51.788;6.136;2022-08-21T07:42:44;7.53;;;3.63;;
4885;SDS011;2457;51.788;6.136;2022-08-21T07:45:13;13.00;;;4.60;;
4885;SDS011;2457;51.788;6.136;2022-08-21T07:47:41;9.07;;;4.23;;
4885;SDS011;2457;51.788;6.136;2022-08-21T07:50:14;8.33;;;3.57;;
4885;SDS011;2457;51.788;6.136;2022-08-21T07:52:38;10.50;;;3.70;;
4885;SDS011;2457;51.788;6.136;2022-08-21T07:55:06;11.97;;;3.73;;
4885;SDS011;2457;51.788;6.136;2022-08-21T07:57:34;11.47;;;3.73;;
4885;SDS011;2457;51.788;6.136;2022-08-21T08:00:02;8.70;;;3.23;;
4885;SDS011;2457;51.788;6.136;2022-08-21T08:02:30;9.83;;;3.17;;
4885;SDS011;2457;51.788;6.136;2022-08-21T08:05:01;12.03;;;2.97;;
4885;SDS011;2457;51.788;6.136;2022-08-21T08:07:29;12.83;;;3.17;;
4885;SDS011;2457;51.788;6.136;2022-08-21T08:09:57;9.03;;;3.40;;
4885;SDS011;2457;51.788;6.136;2022-08-21T08:12:24;12.90;;;3.90;;
4885;SDS011;2457;51.788;6.136;2022-08-21T08:14:53;10.40;;;3.40;;
4885;SDS011;2457;51.788;6.136;2022-08-21T08:17:21;13.93;;;3.17;;
4885;SDS011;2457;51.788;6.136;2022-08-21T08:19:49;9.53;;;3.60;;
4885;SDS011;2457;51.788;6.136;2022-08-21T08:22:18;9.60;;;3.30;;
4885;SDS011;2457;51.788;6.136;2022-08-21T08:24:50;10.03;;;3.80;;
4885;SDS011;2457;51.788;6.136;2022-08-21T08:27:18;8.13;;;3.70;;
4885;SDS011;2457;51.788;6.136;2022-08-21T08:29:45;8.70;;;3.33;;
4885;SDS011;2457;51.788;6.136;2022-08-21T08:32:13;9.17;;;3.97;;
4885;SDS011;2457;51.788;6.136;2022-08-21T08:34:40;7.87;;;3.47;;
4885;SDS011;2457;51.788;6.136;2022-08-21T08:37:08;11.43;;;4.00;;
4885;SDS011;2457;51.788;6.136;2022-08-21T08:39:36;7.83;;;3.27;;
4885;SDS011;2457;51.788;6.136;2022-08-21T08:42:11;8.97;;;3.83;;
4885;SDS011;2457;51.788;6.136;2022-08-21T08:44:36;10.50;;;3.90;;
4885;SDS011;2457;51.788;6.136;2022-08-21T08:47:04;6.20;;;2.90;;
4885;SDS011;2457;51.788;6.136;2022-08-21T08:49:34;14.70;;;3.80;;
4885;SDS011;2457;51.788;6.136;2022-08-21T08:52:06;8.83;;;3.30;;
4885;SDS011;2457;51.788;6.136;2022-08-21T08:54:42;14.97;;;4.07;;
4885;SDS011;2457;51.788;6.136;2022-08-21T08:57:06;8.33;;;3.10;;
4885;SDS011;2457;51.788;6.136;2022-08-21T08:59:43;12.37;;;4.47;;
4885;SDS011;2457;51.788;6.136;2022-08-21T09:02:11;9.63;;;3.33;;
4885;SDS011;2457;51.788;6.136;2022-08-21T09:04:39;13.97;;;4.30;;
4885;SDS011;2457;51.788;6.136;2022-08-21T09:07:31;8.00;;;3.93;;
4885;SDS011;2457;51.788;6.136;2022-08-21T09:09:48;7.67;;;3.40;;
4885;SDS011;2457;51.788;6.136;2022-08-21T09:12:16;9.53;;;3.30;;
4885;SDS011;2457;51.788;6.136;2022-08-21T09:15:00;11.43;;;3.73;;
4885;SDS011;2457;51.788;6.136;2022-08-21T09:23:04;7.27;;;2.60;;
4885;SDS011;2457;51.788;6.136;2022-08-21T09:25:34;13.03;;;3.03;;
4885;SDS011;2457;51.788;6.136;2022-08-21T09:28:01;10.50;;;2.50;;
4885;SDS011;2457;51.788;6.136;2022-08-21T09:30:30;10.20;;;2.73;;
4885;SDS011;2457;51.788;6.136;2022-08-21T09:32:57;11.60;;;2.87;;
4885;SDS011;2457;51.788;6.136;2022-08-21T09:35:25;8.90;;;2.43;;
4885;SDS011;2457;51.788;6.136;2022-08-21T09:37:57;15.37;;;2.57;;
4885;SDS011;2457;51.788;6.136;2022-08-21T09:40:27;7.60;;;2.60;;
4885;SDS011;2457;51.788;6.136;2022-08-21T09:43:00;6.57;;;2.63;;
4885;SDS011;2457;51.788;6.136;2022-08-21T09:45:27;8.40;;;2.40;;
4885;SDS011;2457;51.788;6.136;2022-08-21T09:47:55;10.20;;;2.57;;
4885;SDS011;2457;51.788;6.136;2022-08-21T09:50:24;6.30;;;2.00;;
4885;SDS011;2457;51.788;6.136;2022-08-21T09:52:58;10.50;;;2.30;;
4885;SDS011;2457;51.788;6.136;2022-08-21T09:55:33;9.03;;;2.40;;
4885;SDS011;2457;51.788;6.136;2022-08-21T09:58:19;5.50;;;2.00;;
4885;SDS011;2457;51.788;6.136;2022-08-21T10:00:56;7.17;;;2.90;;
4885;SDS011;2457;51.788;6.136;2022-08-21T10:03:20;7.30;;;2.10;;
4885;SDS011;2457;51.788;6.136;2022-08-21T10:05:52;13.93;;;2.23;;
4885;SDS011;2457;51.788;6.136;2022-08-21T10:08:20;10.47;;;2.40;;
4885;SDS011;2457;51.788;6.136;2022-08-21T10:10:50;7.13;;;2.10;;
4885;SDS011;2457;51.788;6.136;2022-08-21T10:19:02;4.40;;;1.30;;
4885;SDS011;2457;51.788;6.136;2022-08-21T10:24:33;5.87;;;1.60;;
4885;SDS011;2457;51.788;6.136;2022-08-21T10:29:39;6.20;;;2.13;;
4885;SDS011;2457;51.788;6.136;2022-08-21T10:32:21;6.17;;;1.70;;
4885;SDS011;2457;51.788;6.136;2022-08-21T10:37:27;5.60;;;1.97;;
4885;SDS011;2457;51.788;6.136;2022-08-21T10:40:07;7.47;;;1.97;;
4885;SDS011;2457;51.788;6.136;2022-08-21T10:42:33;6.03;;;1.83;;
4885;SDS011;2457;51.788;6.136;2022-08-21T10:45:22;6.33;;;1.80;;
4885;SDS011;2457;51.788;6.136;2022-08-21T10:47:48;5.30;;;2.10;;
4885;SDS011;2457;51.788;6.136;2022-08-21T10:50:17;7.20;;;1.70;;
4885;SDS011;2457;51.788;6.136;2022-08-21T10:52:57;9.10;;;1.80;;
4885;SDS011;2457;51.788;6.136;2022-08-21T10:57:54;3.80;;;1.70;;
4885;SDS011;2457;51.788;6.136;2022-08-21T11:00:22;8.83;;;1.47;;
4885;SDS011;2457;51.788;6.136;2022-08-21T11:02:53;11.40;;;1.73;;
4885;SDS011;2457;51.788;6.136;2022-08-21T11:07:56;6.70;;;1.93;;
4885;SDS011;2457;51.788;6.136;2022-08-21T11:13:15;5.20;;;1.60;;
4885;SDS011;2457;51.788;6.136;2022-08-21T11:15:56;4.50;;;1.40;;
4885;SDS011;2457;51.788;6.136;2022-08-21T11:18:28;5.83;;;1.77;;
4885;SDS011;2457;51.788;6.136;2022-08-21T11:26:32;4.77;;;1.30;;
4885;SDS011;2457;51.788;6.136;2022-08-21T11:29:02;3.83;;;1.50;;
4885;SDS011;2457;51.788;6.136;2022-08-21T11:31:32;5.73;;;1.87;;
4885;SDS011;2457;51.788;6.136;2022-08-21T11:34:10;5.10;;;1.53;;
4885;SDS011;2457;51.788;6.136;2022-08-21T11:36:38;6.90;;;1.60;;
4885;SDS011;2457;51.788;6.136;2022-08-21T11:42:35;5.13;;;1.50;;
4885;SDS011;2457;51.788;6.136;2022-08-21T11:44:26;9.53;;;1.80;;
4885;SDS011;2457;51.788;6.136;2022-08-21T11:52:14;9.90;;;1.57;;
4885;SDS011;2457;51.788;6.136;2022-08-21T11:54:42;6.33;;;1.40;;
4885;SDS011;2457;51.788;6.136;2022-08-21T11:59:57;4.67;;;1.40;;
4885;SDS011;2457;51.788;6.136;2022-08-21T12:02:23;4.87;;;1.80;;
4885;SDS011;2457;51.788;6.136;2022-08-21T12:04:52;8.30;;;1.67;;
4885;SDS011;2457;51.788;6.136;2022-08-21T12:07:31;6.97;;;1.83;;
4885;SDS011;2457;51.788;6.136;2022-08-21T12:09:58;6.60;;;1.23;;
4885;SDS011;2457;51.788;6.136;2022-08-21T12:12:27;8.20;;;2.00;;
4885;SDS011;2457;51.788;6.136;2022-08-21T12:17:37;6.43;;;1.40;;
4885;SDS011;2457;51.788;6.136;2022-08-21T12:22:53;4.30;;;1.47;;
4885;SDS011;2457;51.788;6.136;2022-08-21T12:25:20;3.77;;;1.30;;
4885;SDS011;2457;51.788;6.136;2022-08-21T12:28:02;6.40;;;1.67;;
4885;SDS011;2457;51.788;6.136;2022-08-21T12:33:00;4.87;;;1.53;;
4885;SDS011;2457;51.788;6.136;2022-08-21T12:35:36;4.90;;;1.67;;
4885;SDS011;2457;51.788;6.136;2022-08-21T12:41:16;3.53;;;1.30;;
4885;SDS011;2457;51.788;6.136;2022-08-21T12:42:59;5.67;;;1.57;;
4885;SDS011;2457;51.788;6.136;2022-08-21T12:45:37;5.53;;;1.33;;
4885;SDS011;2457;51.788;6.136;2022-08-21T12:48:01;4.47;;;1.53;;
4885;SDS011;2457;51.788;6.136;2022-08-21T12:53:10;5.60;;;1.40;;
4885;SDS011;2457;51.788;6.136;2022-08-21T12:55:40;3.70;;;1.20;;
4885;SDS011;2457;51.788;6.136;2022-08-21T12:58:16;8.63;;;1.70;;
4885;SDS011;2457;51.788;6.136;2022-08-21T13:00:36;3.93;;;1.53;;
4885;SDS011;2457;51.788;6.136;2022-08-21T13:03:04;6.87;;;1.70;;
4885;SDS011;2457;51.788;6.136;2022-08-21T13:05:33;4.70;;;1.70;;
4885;SDS011;2457;51.788;6.136;2022-08-21T13:08:03;3.93;;;1.20;;
4885;SDS011;2457;51.788;6.136;2022-08-21T13:10:29;5.03;;;1.33;;
4885;SDS011;2457;51.788;6.136;2022-08-21T13:12:58;7.93;;;1.43;;
4885;SDS011;2457;51.788;6.136;2022-08-21T13:15:28;3.57;;;1.37;;
4885;SDS011;2457;51.788;6.136;2022-08-21T13:17:55;3.87;;;1.40;;
4885;SDS011;2457;51.788;6.136;2022-08-21T13:20:25;3.97;;;1.43;;
4885;SDS011;2457;51.788;6.136;2022-08-21T13:22:52;4.57;;;1.80;;
4885;SDS011;2457;51.788;6.136;2022-08-21T13:25:20;5.13;;;1.50;;
4885;SDS011;2457;51.788;6.136;2022-08-21T13:27:59;5.50;;;1.70;;
4885;SDS011;2457;51.788;6.136;2022-08-21T13:30:26;4.20;;;1.50;;
4885;SDS011;2457;51.788;6.136;2022-08-21T13:32:57;6.37;;;1.60;;
4885;SDS011;2457;51.788;6.136;2022-08-21T13:35:27;4.47;;;1.50;;
4885;SDS011;2457;51.788;6.136;2022-08-21T13:37:54;4.80;;;1.60;;
4885;SDS011;2457;51.788;6.136;2022-08-21T13:40:26;8.53;;;1.93;;
4885;SDS011;2457;51.788;6.136;2022-08-21T13:42:53;7.13;;;2.30;;
4885;SDS011;2457;51.788;6.136;2022-08-21T13:45:25;4.97;;;1.77;;
4885;SDS011;2457;51.788;6.136;2022-08-21T13:47:54;5.60;;;1.60;;
4885;SDS011;2457;51.788;6.136;2022-08-21T13:50:22;4.97;;;2.30;;
4885;SDS011;2457;51.788;6.136;2022-08-21T13:52:55;10.53;;;1.97;;
4885;SDS011;2457;51.788;6.136;2022-08-21T13:55:19;5.20;;;1.50;;
4885;SDS011;2457;51.788;6.136;2022-08-21T13:57:47;8.80;;;1.60;;
4885;SDS011;2457;51.788;6.136;2022-08-21T14:00:18;3.67;;;1.50;;
4885;SDS011;2457;51.788;6.136;2022-08-21T14:02:47;7.03;;;1.50;;
4885;SDS011;2457;51.788;6.136;2022-08-21T14:05:16;10.23;;;2.10;;
4885;SDS011;2457;51.788;6.136;2022-08-21T14:07:43;3.57;;;1.30;;
4885;SDS011;2457;51.788;6.136;2022-08-21T14:10:13;7.43;;;1.80;;
4885;SDS011;2457;51.788;6.136;2022-08-21T14:12:48;6.10;;;1.83;;
4885;SDS011;2457;51.788;6.136;2022-08-21T14:15:15;7.50;;;1.77;;
4885;SDS011;2457;51.788;6.136;2022-08-21T14:17:43;9.00;;;1.80;;
4885;SDS011;2457;51.788;6.136;2022-08-21T14:20:12;5.00;;;1.70;;
4885;SDS011;2457;51.788;6.136;2022-08-21T14:22:47;9.07;;;2.00;;
4885;SDS011;2457;51.788;6.136;2022-08-21T14:25:30;5.93;;;1.93;;
4885;SDS011;2457;51.788;6.136;2022-08-21T14:27:44;6.63;;;1.90;;
4885;SDS011;2457;51.788;6.136;2022-08-21T14:30:13;5.10;;;1.83;;
4885;SDS011;2457;51.788;6.136;2022-08-21T14:32:40;8.63;;;1.97;;
4885;SDS011;2457;51.788;6.136;2022-08-21T14:35:08;3.90;;;1.73;;
4885;SDS011;2457;51.788;6.136;2022-08-21T14:37:35;3.57;;;1.43;;
4885;SDS011;2457;51.788;6.136;2022-08-21T14:40:04;5.00;;;1.57;;
4885;SDS011;2457;51.788;6.136;2022-08-21T14:42:31;4.40;;;1.37;;
4885;SDS011;2457;51.788;6.136;2022-08-21T14:45:00;8.50;;;1.87;;
4885;SDS011;2457;51.788;6.136;2022-08-21T14:47:27;5.23;;;1.63;;
4885;SDS011;2457;51.788;6.136;2022-08-21T14:49:55;4.20;;;1.40;;
4885;SDS011;2457;51.788;6.136;2022-08-21T14:52:22;11.43;;;1.80;;
4885;SDS011;2457;51.788;6.136;2022-08-21T14:54:50;4.23;;;1.50;;
4885;SDS011;2457;51.788;6.136;2022-08-21T14:57:17;14.23;;;1.70;;
4885;SDS011;2457;51.788;6.136;2022-08-21T14:59:44;8.43;;;1.60;;
4885;SDS011;2457;51.788;6.136;2022-08-21T15:02:12;7.07;;;1.50;;
4885;SDS011;2457;51.788;6.136;2022-08-21T15:04:39;13.97;;;2.60;;
4885;SDS011;2457;51.788;6.136;2022-08-21T15:07:07;6.03;;;1.40;;
4885;SDS011;2457;51.788;6.136;2022-08-21T15:09:35;5.77;;;1.50;;
4885;SDS011;2457;51.788;6.136;2022-08-21T15:12:02;5.33;;;1.90;;
4885;SDS011;2457;51.788;6.136;2022-08-21T15:14:30;6.00;;;1.60;;
4885;SDS011;2457;51.788;6.136;2022-08-21T15:16:59;4.37;;;1.50;;
4885;SDS011;2457;51.788;6.136;2022-08-21T15:19:26;4.17;;;1.60;;
4885;SDS011;2457;51.788;6.136;2022-08-21T15:21:55;6.27;;;1.57;;
4885;SDS011;2457;51.788;6.136;2022-08-21T15:24:23;7.33;;;1.40;;
4885;SDS011;2457;51.788;6.136;2022-08-21T15:26:50;7.03;;;1.70;;
4885;SDS011;2457;51.788;6.136;2022-08-21T15:29:18;3.93;;;1.60;;
4885;SDS011;2457;51.788;6.136;2022-08-21T15:31:53;5.33;;;1.33;;
4885;SDS011;2457;51.788;6.136;2022-08-21T15:34:20;5.63;;;1.50;;
4885;SDS011;2457;51.788;6.136;2022-08-21T15:36:48;5.23;;;1.53;;
4885;SDS011;2457;51.788;6.136;2022-08-21T15:39:15;5.90;;;1.43;;
4885;SDS011;2457;51.788;6.136;2022-08-21T15:41:44;6.43;;;1.60;;
4885;SDS011;2457;51.788;6.136;2022-08-21T15:44:11;10.43;;;1.70;;
4885;SDS011;2457;51.788;6.136;2022-08-21T15:46:39;5.63;;;1.50;;
4885;SDS011;2457;51.788;6.136;2022-08-21T15:49:07;5.80;;;1.60;;
4885;SDS011;2457;51.788;6.136;2022-08-21T15:51:35;6.43;;;1.60;;
4885;SDS011;2457;51.788;6.136;2022-08-21T15:54:02;5.80;;;1.50;;
4885;SDS011;2457;51.788;6.136;2022-08-21T15:56:35;7.00;;;1.50;;
4885;SDS011;2457;51.788;6.136;2022-08-21T15:59:04;6.80;;;1.20;;
4885;SDS011;2457;51.788;6.136;2022-08-21T16:01:27;4.00;;;1.20;;
4885;SDS011;2457;51.788;6.136;2022-08-21T16:03:55;4.60;;;1.57;;
4885;SDS011;2457;51.788;6.136;2022-08-21T16:06:22;8.30;;;1.43;;
4885;SDS011;2457;51.788;6.136;2022-08-21T16:08:50;10.93;;;1.60;;
4885;SDS011;2457;51.788;6.136;2022-08-21T16:11:17;5.10;;;1.73;;
4885;SDS011;2457;51.788;6.136;2022-08-21T16:13:44;5.20;;;1.20;;
4885;SDS011;2457;51.788;6.136;2022-08-21T16:16:15;4.63;;;1.40;;
4885;SDS011;2457;51.788;6.136;2022-08-21T16:18:41;3.40;;;1.33;;